Time;durP1;ratioP1;P1;durP2;ratioP2;P2;SDS_P1;SDS_P2;PMS_P1;PMS_P2;Temp;Humidity;BMP_temperature;BMP_pressure;BME280_temperature;BME280_humidity;BME280_pressure;Samples;Min_cycle;Max_cycle;Signal;HPM_P1;HPM_P2
2023/10/21 00:02:09;;;;;;;;;5.00;3.00;;;;;15.73;85.31;98206.41;5037411;28;45308;-39
2023/10/21 00:04:34;;;;;;;;;3.33;2.00;;;;;15.71;85.63;98203.97;5037399;28;45343;-43
2023/10/21 00:07:00;;;;;;;;;5.67;3.67;;;;;15.72;86.43;98202.94;5036935;28;46178;-39
2023/10/21 00:09:25;;;;;;;;;3.00;3.00;;;;;15.62;86.21;98197.34;5036967;28;45517;-42
2023/10/21 00:11:51;;;;;;;;;5.00;3.00;;;;;15.70;85.71;98216.56;5037058;28;45462;-41
2023/10/21 00:14:17;;;;;;;;;1.00;1.00;;;;;15.67;86.44;98213.53;5037319;28;45472;-39
2023/10/21 00:16:43;;;;;;;;;1.00;1.00;;;;;15.64;86.18;98222.91;5036857;28;46976;-40
2023/10/21 00:19:08;;;;;;;;;3.33;2.00;;;;;15.67;87.40;98219.75;5036948;28;45781;-40
2023/10/21 00:21:34;;;;;;;;;1.00;1.00;;;;;15.67;86.20;98219.75;5035516;28;45443;-41
2023/10/21 00:23:59;;;;;;;;;1.67;1.67;;;;;15.71;86.35;98249.53;5037355;28;45439;-39
2023/10/21 00:26:25;;;;;;;;;3.00;2.00;;;;;15.59;85.73;98233.50;5018737;28;46115;-42
2023/10/21 00:28:50;;;;;;;;;0.33;0.00;;;;;15.70;84.28;98254.06;5036184;28;45429;-42
2023/10/21 00:31:15;;;;;;;;;0.33;0.33;;;;;15.67;84.18;98251.91;5036938;28;45363;-39
2023/10/21 00:33:41;;;;;;;;;1.00;0.00;;;;;15.72;83.45;98251.19;5036917;28;45781;-41
2023/10/21 00:36:06;;;;;;;;;0.00;0.00;;;;;15.71;82.31;98260.25;5036485;28;45329;-44
2023/10/21 00:38:32;;;;;;;;;0.00;0.00;;;;;15.63;81.05;98265.97;5035980;28;45276;-41
2023/10/21 00:40:57;;;;;;;;;0.00;0.00;;;;;15.62;80.27;98272.38;5036851;28;45389;-41
2023/10/21 00:43:33;;;;;;;;;0.00;0.00;;;;;15.64;79.42;98278.34;5037016;28;45242;-40
2023/10/21 00:46:02;;;;;;;;;0.00;0.00;;;;;15.60;79.15;98290.59;5036772;28;46408;-39
2023/10/21 00:48:28;;;;;;;;;0.00;0.00;;;;;15.60;78.85;98296.75;5036431;28;45425;-40
2023/10/21 00:50:54;;;;;;;;;1.00;0.00;;;;;15.66;79.14;98306.53;5018609;28;45386;-41
2023/10/21 00:53:20;;;;;;;;;0.00;0.00;;;;;15.68;79.46;98325.88;5036605;28;45384;-41
2023/10/21 00:55:46;;;;;;;;;1.00;0.00;;;;;15.63;79.74;98324.91;5036417;28;45400;-40
2023/10/21 00:58:11;;;;;;;;;0.00;0.00;;;;;15.58;79.60;98331.00;5036246;28;45406;-42
2023/10/21 01:00:37;;;;;;;;;1.00;0.00;;;;;15.59;79.54;98347.88;5036507;28;45694;-41
2023/10/21 01:03:03;;;;;;;;;0.00;0.00;;;;;15.57;79.42;98350.00;5036717;28;45396;-39
2023/10/21 01:05:28;;;;;;;;;0.00;0.00;;;;;15.54;79.29;98361.19;5036026;28;46474;-40
2023/10/21 01:07:59;;;;;;;;;0.00;0.00;;;;;15.47;79.60;98362.16;5036188;28;45393;-41
2023/10/21 01:10:25;;;;;;;;;0.00;0.00;;;;;15.51;79.55;98369.72;5036177;28;45443;-40
2023/10/21 01:12:51;;;;;;;;;0.00;0.00;;;;;15.51;79.20;98383.13;5036422;28;45413;-50
2023/10/21 01:15:16;;;;;;;;;0.00;0.00;;;;;15.47;78.77;98372.88;5036018;28;45357;-44
2023/10/21 01:17:49;;;;;;;;;0.00;0.00;;;;;15.46;78.97;98381.13;5035984;28;45419;-40
2023/10/21 01:20:14;;;;;;;;;0.00;0.00;;;;;15.49;78.88;98391.38;5036083;28;45510;-42
2023/10/21 01:22:40;;;;;;;;;0.00;0.00;;;;;15.47;78.55;98398.84;5018323;28;45426;-42
2023/10/21 01:25:06;;;;;;;;;0.00;0.00;;;;;15.40;78.12;98396.28;5035778;28;46246;-42
2023/10/21 01:27:32;;;;;;;;;0.00;0.00;;;;;15.30;78.35;98392.59;5035366;28;45317;-46
2023/10/21 01:29:57;;;;;;;;;0.00;0.00;;;;;15.30;78.21;98395.25;5035962;28;45214;-43
2023/10/21 01:32:24;;;;;;;;;0.00;0.00;;;;;15.30;77.81;98405.97;5036354;28;45266;-42
2023/10/21 01:34:50;;;;;;;;;0.00;0.00;;;;;15.29;76.97;98421.22;5034833;28;45372;-41
2023/10/21 01:37:15;;;;;;;;;0.00;0.00;;;;;15.23;76.81;98406.91;5035735;28;45439;-39
2023/10/21 01:39:41;;;;;;;;;0.00;0.00;;;;;15.27;76.80;98431.34;5035940;28;45468;-41
2023/10/21 01:42:06;;;;;;;;;1.67;0.00;;;;;15.30;75.96;98432.75;5038066;28;45557;-43
2023/10/21 01:44:32;;;;;;;;;1.00;0.00;;;;;15.30;76.16;98427.41;5038671;28;46328;-44
2023/10/21 01:46:57;;;;;;;;;0.00;0.00;;;;;15.30;76.06;98443.47;5039139;28;45434;-41
2023/10/21 01:49:22;;;;;;;;;0.00;0.00;;;;;15.29;75.89;98449.84;5021646;28;45440;-42
2023/10/21 01:51:47;;;;;;;;;1.00;0.00;;;;;15.26;76.40;98453.03;5038652;28;45582;-41
2023/10/21 01:54:13;;;;;;;;;0.00;0.00;;;;;15.25;75.91;98457.53;5039134;28;46410;-44
2023/10/21 01:56:38;;;;;;;;;0.00;0.00;;;;;15.25;76.09;98454.06;5039155;28;45383;-40
2023/10/21 01:59:04;;;;;;;;;0.00;0.00;;;;;15.25;76.37;98460.22;5039389;28;45315;-41
2023/10/21 02:01:29;;;;;;;;;0.00;0.00;;;;;15.25;76.42;98460.22;5039411;28;45453;-42
2023/10/21 02:03:54;;;;;;;;;0.00;0.00;;;;;15.25;76.24;98459.41;5038605;28;45399;-40
2023/10/21 02:06:20;;;;;;;;;0.00;0.00;;;;;15.17;76.61;98458.72;5038111;28;45456;-41
2023/10/21 02:08:45;;;;;;;;;0.00;0.00;;;;;15.16;76.56;98465.09;5039053;28;45771;-41
2023/10/21 02:11:11;;;;;;;;;0.00;0.00;;;;;15.13;76.21;98460.22;5039421;28;45261;-41
2023/10/21 02:13:36;;;;;;;;;0.00;0.00;;;;;15.10;76.38;98473.28;5038664;28;45468;-43
2023/10/21 02:16:01;;;;;;;;;1.00;0.00;;;;;15.09;75.94;98482.34;5039072;28;45383;-41
2023/10/21 02:18:27;;;;;;;;;0.00;0.00;;;;;15.03;75.94;98480.59;5038916;28;45315;-42
2023/10/21 02:20:52;;;;;;;;;0.00;0.00;;;;;14.96;75.88;98478.03;5038499;28;46137;-41
2023/10/21 02:23:17;;;;;;;;;0.00;0.00;;;;;14.93;75.93;98494.53;5038533;28;45963;-44
2023/10/21 02:25:43;;;;;;;;;4.00;3.00;;;;;14.87;76.10;98479.38;5038402;28;45454;-44
2023/10/21 02:28:09;;;;;;;;;3.33;0.00;;;;;14.92;75.61;98508.97;5020800;28;45381;-39
2023/10/21 02:30:35;;;;;;;;;2.00;0.00;;;;;14.92;75.37;98508.97;5038746;28;45412;-41
2023/10/21 02:33:01;;;;;;;;;0.00;0.00;;;;;14.94;74.62;98522.94;5038571;28;46095;-41
2023/10/21 02:35:26;;;;;;;;;0.67;0.00;;;;;14.92;74.62;98517.81;5038475;28;45438;-44
2023/10/21 02:37:51;;;;;;;;;0.67;0.00;;;;;14.93;74.05;98515.97;5037749;28;45484;-42
2023/10/21 02:40:17;;;;;;;;;0.00;0.00;;;;;14.88;73.99;98521.19;5038826;28;45367;-42
2023/10/21 02:42:43;;;;;;;;;0.00;0.00;;;;;14.91;73.89;98526.06;5038471;28;46162;-42
2023/10/21 02:45:08;;;;;;;;;0.00;0.00;;;;;14.88;73.81;98518.50;5038510;28;45404;-40
2023/10/21 02:47:35;;;;;;;;;0.33;0.00;;;;;14.86;73.47;98532.09;5038566;28;45407;-42
2023/10/21 02:50:01;;;;;;;;;0.00;0.00;;;;;14.87;73.17;98531.06;5038723;28;45349;-42
2023/10/21 02:52:27;;;;;;;;;1.00;1.00;;;;;14.87;73.18;98536.41;5037943;28;45942;-42
2023/10/21 02:54:52;;;;;;;;;2.00;0.00;;;;;14.87;73.18;98530.25;5038255;28;45779;-43
2023/10/21 02:57:17;;;;;;;;;0.00;0.00;;;;;14.85;73.38;98543.88;5038404;28;45363;-42
2023/10/21 02:59:43;;;;;;;;;4.00;0.00;;;;;14.86;72.84;98548.16;5037660;28;45594;-42
2023/10/21 03:02:08;;;;;;;;;0.00;0.00;;;;;14.89;72.73;98552.25;5038024;28;46175;-42
2023/10/21 03:04:35;;;;;;;;;0.00;0.00;;;;;14.90;72.68;98551.22;5038183;28;45525;-49
2023/10/21 03:07:01;;;;;;;;;0.00;0.00;;;;;14.85;72.51;98554.56;5038400;28;45577;-43
2023/10/21 03:09:26;;;;;;;;;0.00;0.00;;;;;14.82;72.59;98563.06;5038016;28;45443;-40
2023/10/21 03:11:52;;;;;;;;;0.00;0.00;;;;;14.81;72.91;98571.31;5038070;28;46114;-39
2023/10/21 03:14:17;;;;;;;;;0.00;0.00;;;;;14.81;72.90;98576.66;5037905;28;45431;-42
2023/10/21 03:16:43;;;;;;;;;0.00;0.00;;;;;14.74;72.98;98571.41;5037961;28;45391;-42
2023/10/21 03:19:08;;;;;;;;;0.00;0.00;;;;;14.77;72.78;98575.50;5038118;28;45470;-41
2023/10/21 03:21:33;;;;;;;;;0.00;0.00;;;;;14.75;72.57;98591.78;5037878;28;46408;-43
2023/10/21 03:23:59;;;;;;;;;0.67;0.67;;;;;14.71;72.76;98585.25;5038030;28;45459;-44
2023/10/21 03:26:24;;;;;;;;;2.00;0.00;;;;;14.68;72.73;98583.03;5037706;28;45492;-38
2023/10/21 03:28:50;;;;;;;;;0.00;0.00;;;;;14.67;73.14;98587.56;5037910;28;45368;-40
2023/10/21 03:31:15;;;;;;;;;2.00;0.00;;;;;14.63;73.12;98583.69;5037244;28;47227;-40
2023/10/21 03:33:41;;;;;;;;;1.67;0.00;;;;;14.65;73.25;98591.50;5037655;28;45290;-41
2023/10/21 03:36:06;;;;;;;;;3.33;0.00;;;;;14.63;73.51;98597.06;5036806;28;45410;-40
2023/10/21 03:38:32;;;;;;;;;1.00;1.00;;;;;14.47;73.43;98582.41;5037586;28;45284;-40
2023/10/21 03:41:08;;;;;;;;;0.67;0.00;;;;;14.53;73.64;98598.63;5037316;28;46522;-40
2023/10/21 03:43:34;;;;;;;;;4.33;2.00;;;;;14.55;73.79;98612.63;5037307;28;45303;-39
2023/10/21 03:46:04;;;;;;;;;2.00;0.00;;;;;14.50;74.00;98602.59;5037372;28;45440;-40
2023/10/21 03:48:30;;;;;;;;;0.00;0.00;;;;;14.48;73.82;98613.50;5020242;28;45495;-41
2023/10/21 03:51:10;;;;;;;;;0.00;0.00;;;;;14.42;74.00;98616.25;5037161;28;47019;-41
2023/10/21 03:53:36;;;;;;;;;2.33;0.00;;;;;14.32;74.21;98606.03;5037127;28;45433;-41
2023/10/21 03:56:02;;;;;;;;;0.33;0.33;;;;;14.21;74.31;98618.31;5037123;28;45416;-40
2023/10/21 03:58:29;;;;;;;;;3.33;0.00;;;;;14.30;74.23;98629.53;5037207;28;45403;-41
2023/10/21 04:00:56;;;;;;;;;0.67;0.00;;;;;14.29;74.10;98633.25;5037008;28;46080;-40
2023/10/21 04:03:22;;;;;;;;;0.00;0.00;;;;;14.32;73.74;98629.31;5036440;28;45414;-40
2023/10/21 04:05:47;;;;;;;;;1.00;1.00;;;;;14.30;73.77;98642.91;5036660;28;45376;-40
2023/10/21 04:08:13;;;;;;;;;1.00;0.00;;;;;14.32;73.57;98650.69;5037160;28;45312;-41
2023/10/21 04:10:38;;;;;;;;;0.00;0.00;;;;;14.26;73.35;98654.28;5036771;28;45309;-40
2023/10/21 04:13:03;;;;;;;;;2.67;0.00;;;;;14.17;73.77;98657.22;5036785;28;48778;-39
2023/10/21 04:15:31;;;;;;;;;1.33;0.00;;;;;14.11;73.43;98657.28;5037044;28;45320;-41
2023/10/21 04:17:56;;;;;;;;;1.67;0.00;;;;;13.93;73.93;98634.00;5019364;28;45289;-41
2023/10/21 04:20:21;;;;;;;;;3.67;0.67;;;;;14.04;73.64;98659.22;5036502;28;46155;-41
2023/10/21 04:22:47;;;;;;;;;1.00;0.00;;;;;14.04;73.61;98665.38;5036820;28;45389;-39
2023/10/21 04:25:12;;;;;;;;;1.00;0.00;;;;;14.03;73.57;98666.44;5036821;28;46148;-41
2023/10/21 04:27:38;;;;;;;;;0.00;0.00;;;;;14.05;73.91;98668.88;5036295;28;45509;-41
2023/10/21 04:30:04;;;;;;;;;1.00;1.00;;;;;14.05;73.98;98674.22;5036447;28;46744;-40
2023/10/21 04:32:30;;;;;;;;;0.00;0.00;;;;;14.08;73.82;98676.47;5036672;28;45342;-39
2023/10/21 04:34:57;;;;;;;;;4.33;0.00;;;;;14.07;73.82;98678.28;5036844;28;45820;-40
2023/10/21 04:37:22;;;;;;;;;0.67;0.67;;;;;14.04;73.81;98680.59;5036767;28;46082;-40
2023/10/21 04:39:48;;;;;;;;;0.00;0.00;;;;;14.00;73.68;98677.56;5036518;28;47132;-40
2023/10/21 04:42:13;;;;;;;;;0.00;0.00;;;;;14.02;74.01;98680.81;5035857;28;45422;-42
2023/10/21 04:44:39;;;;;;;;;1.00;1.00;;;;;13.99;73.68;98678.59;5036942;28;45304;-41
2023/10/21 04:47:05;;;;;;;;;1.67;0.00;;;;;14.06;74.03;98687.34;5037114;28;45293;-41
2023/10/21 04:49:31;;;;;;;;;0.00;0.00;;;;;14.06;73.91;98699.91;5034984;28;45364;-41
2023/10/21 04:51:57;;;;;;;;;2.00;1.00;;;;;14.06;73.81;98702.56;5036123;28;45450;-39
2023/10/21 04:54:22;;;;;;;;;1.00;1.00;;;;;13.96;73.92;98693.22;5036361;28;45411;-41
2023/10/21 04:56:47;;;;;;;;;0.00;0.00;;;;;14.06;74.42;98707.94;5036609;28;45408;-38
2023/10/21 04:59:13;;;;;;;;;1.00;0.00;;;;;14.08;74.54;98711.22;5036312;28;45903;-40
2023/10/21 05:01:38;;;;;;;;;0.00;0.00;;;;;14.03;74.43;98703.00;5036420;28;45444;-40
2023/10/21 05:04:03;;;;;;;;;0.00;0.00;;;;;14.09;74.12;98715.53;5036359;28;45345;-40
2023/10/21 05:06:29;;;;;;;;;2.00;1.00;;;;;14.06;74.36;98710.59;5036500;28;45911;-39
2023/10/21 05:08:54;;;;;;;;;0.00;0.00;;;;;14.10;74.25;98739.34;5036336;28;45423;-42
2023/10/21 05:11:19;;;;;;;;;1.00;1.00;;;;;14.09;73.81;98721.69;5036264;28;45445;-41
2023/10/21 05:13:45;;;;;;;;;1.67;0.00;;;;;14.03;74.19;98711.03;5036415;28;45466;-39
2023/10/21 05:16:11;;;;;;;;;4.00;0.00;;;;;14.10;73.96;98720.63;5036252;28;45365;-39
2023/10/21 05:18:38;;;;;;;;;1.33;0.33;;;;;14.09;74.19;98735.06;5036139;28;47071;-44
2023/10/21 05:21:06;;;;;;;;;1.00;1.00;;;;;14.09;74.00;98740.41;5036185;28;45396;-41
2023/10/21 05:23:32;;;;;;;;;0.33;0.00;;;;;14.08;74.27;98743.28;5036427;28;45471;-42
2023/10/21 05:25:58;;;;;;;;;0.00;0.00;;;;;14.06;74.25;98751.53;5036010;28;45547;-38
2023/10/21 05:28:24;;;;;;;;;6.33;0.00;;;;;14.07;74.09;98741.63;5036034;28;47182;-44
2023/10/21 05:30:49;;;;;;;;;3.67;0.00;;;;;14.03;74.02;98748.44;5035928;28;45355;-42
2023/10/21 05:33:14;;;;;;;;;0.00;0.00;;;;;14.01;74.12;98743.34;5036073;28;45504;-42
2023/10/21 05:35:40;;;;;;;;;2.00;0.00;;;;;14.04;74.34;98756.28;5036529;28;45430;-40
2023/10/21 05:38:05;;;;;;;;;0.00;0.00;;;;;13.98;74.17;98755.28;5034730;28;46004;-44
2023/10/21 05:40:31;;;;;;;;;8.00;1.33;;;;;13.93;74.51;98749.75;5035852;28;45388;-39
2023/10/21 05:42:56;;;;;;;;;5.00;1.00;;;;;13.87;74.28;98758.66;5035870;28;45274;-39
2023/10/21 05:45:23;;;;;;;;;1.00;0.33;;;;;13.91;74.29;98764.41;5035998;28;45740;-42
2023/10/21 05:47:49;;;;;;;;;2.33;1.00;;;;;13.91;74.07;98764.41;5035889;28;46239;-41
2023/10/21 05:50:16;;;;;;;;;0.00;0.00;;;;;13.90;74.29;98757.38;5035523;28;45214;-41
2023/10/21 05:52:42;;;;;;;;;0.00;0.00;;;;;13.90;74.67;98760.88;5017919;28;45463;-42
2023/10/21 05:55:08;;;;;;;;;3.00;0.00;;;;;13.81;74.61;98753.34;5035755;28;45428;-41
2023/10/21 05:57:33;;;;;;;;;0.00;0.00;;;;;13.89;74.18;98761.91;5035387;28;45472;-41
2023/10/21 05:59:58;;;;;;;;;1.67;0.00;;;;;13.88;74.42;98764.81;5035593;28;45376;-40
2023/10/21 06:02:24;;;;;;;;;3.00;1.00;;;;;13.84;74.45;98766.28;5035313;28;45437;-41
2023/10/21 06:04:49;;;;;;;;;1.33;1.33;;;;;13.85;74.31;98758.03;5035759;28;45427;-41
2023/10/21 06:07:14;;;;;;;;;2.33;1.00;;;;;13.78;74.57;98749.28;5035193;28;46313;-40
2023/10/21 06:09:39;;;;;;;;;1.00;1.00;;;;;13.84;74.42;98761.75;5035256;28;45381;-41
2023/10/21 06:12:06;;;;;;;;;1.00;0.33;;;;;13.83;74.71;98768.16;5035395;28;45439;-41
2023/10/21 06:14:31;;;;;;;;;1.33;1.00;;;;;13.86;74.77;98772.22;5034954;28;45436;-43
2023/10/21 06:16:58;;;;;;;;;1.67;1.00;;;;;13.86;74.61;98774.91;5017540;28;46813;-41
2023/10/21 06:19:23;;;;;;;;;4.00;1.00;;;;;13.87;74.58;98773.88;5035453;28;45349;-42
2023/10/21 06:21:49;;;;;;;;;3.00;0.00;;;;;13.72;74.53;98783.00;5035456;28;45355;-42
2023/10/21 06:24:14;;;;;;;;;1.00;1.00;;;;;13.86;74.58;98793.59;5035561;28;45381;-41
2023/10/21 06:26:39;;;;;;;;;3.67;2.00;;;;;13.89;74.56;98793.19;5017235;28;46134;-42
2023/10/21 06:29:05;;;;;;;;;1.00;1.00;;;;;13.88;74.30;98791.56;5038936;28;45305;-41
2023/10/21 06:31:31;;;;;;;;;2.67;1.67;;;;;13.89;74.59;98787.84;5038869;28;45403;-40
2023/10/21 06:33:57;;;;;;;;;0.00;0.00;;;;;13.87;74.29;98771.22;5038019;28;45476;-41
2023/10/21 06:36:22;;;;;;;;;4.00;3.33;;;;;13.89;74.18;98788.66;5038418;28;45354;-40
2023/10/21 06:38:50;;;;;;;;;2.33;1.00;;;;;13.93;74.24;98805.09;5038469;28;45317;-40
2023/10/21 06:41:16;;;;;;;;;9.33;1.67;;;;;13.84;73.44;98779.66;5038266;28;45374;-41
2023/10/21 06:43:42;;;;;;;;;2.33;1.00;;;;;13.95;73.81;98819.06;5038831;28;45458;-41
2023/10/21 06:46:08;;;;;;;;;1.00;1.00;;;;;13.94;73.70;98817.41;5037843;28;47028;-39
2023/10/21 06:48:33;;;;;;;;;2.00;2.00;;;;;13.95;73.37;98829.75;5038527;28;45349;-41
2023/10/21 06:50:59;;;;;;;;;1.00;1.00;;;;;13.96;73.27;98815.34;5038171;28;45423;-42
2023/10/21 06:53:26;;;;;;;;;1.00;0.00;;;;;14.04;72.48;98839.16;5038316;28;45482;-42
2023/10/21 06:55:52;;;;;;;;;3.67;1.00;;;;;14.09;72.25;98842.00;5037832;28;46329;-41
2023/10/21 06:58:17;;;;;;;;;3.33;1.33;;;;;14.11;71.74;98839.91;5037882;28;45473;-40
2023/10/21 07:00:43;;;;;;;;;2.00;0.00;;;;;14.15;72.05;98845.66;5038357;28;45435;-40
2023/10/21 07:03:08;;;;;;;;;3.00;0.00;;;;;14.19;71.74;98847.66;5038168;28;45366;-41
2023/10/21 07:05:35;;;;;;;;;1.00;1.00;;;;;14.20;71.67;98853.88;5037816;28;45489;-40
2023/10/21 07:08:01;;;;;;;;;1.33;0.33;;;;;14.19;71.87;98858.38;5038035;28;45455;-39
2023/10/21 07:10:29;;;;;;;;;1.33;0.00;;;;;14.17;71.44;98873.00;5037850;28;45436;-41
2023/10/21 07:12:55;;;;;;;;;2.00;2.00;;;;;14.10;71.34;98862.34;5038457;28;45414;-41
2023/10/21 07:15:20;;;;;;;;;3.00;1.33;;;;;14.12;72.08;98889.69;5037640;28;47101;-41
2023/10/21 07:17:46;;;;;;;;;0.00;0.00;;;;;14.01;71.99;98858.28;5036748;28;45643;-41
2023/10/21 07:20:13;;;;;;;;;2.00;0.00;;;;;14.11;71.97;98874.66;5037447;28;45317;-41
2023/10/21 07:22:42;;;;;;;;;4.33;1.00;;;;;14.09;71.62;98876.75;5038179;28;45342;-42
2023/10/21 07:25:07;;;;;;;;;0.67;0.00;;;;;14.12;71.48;98887.03;5037869;28;46288;-41
2023/10/21 07:27:33;;;;;;;;;1.00;1.00;;;;;14.11;71.32;98871.19;5019963;28;45436;-40
2023/10/21 07:29:58;;;;;;;;;2.00;0.67;;;;;14.15;71.20;98885.75;5038050;28;45388;-40
2023/10/21 07:32:24;;;;;;;;;4.33;0.33;;;;;14.19;70.96;98898.47;5038058;28;45407;-41
2023/10/21 07:34:50;;;;;;;;;1.67;1.00;;;;;14.22;71.10;98892.72;5037755;28;45491;-41
2023/10/21 07:37:15;;;;;;;;;8.00;0.33;;;;;14.29;70.55;98906.06;5037748;28;45262;-40
2023/10/21 07:39:40;;;;;;;;;3.00;1.67;;;;;14.34;70.74;98900.06;5036548;28;45344;-41
2023/10/21 07:42:06;;;;;;;;;0.67;0.67;;;;;14.37;70.63;98895.09;5037736;28;45372;-42
2023/10/21 07:44:31;;;;;;;;;2.67;0.00;;;;;14.39;70.14;98892.19;5037576;28;45283;-41
2023/10/21 07:46:56;;;;;;;;;0.67;0.67;;;;;14.47;70.33;98903.44;5037589;28;45426;-45
2023/10/21 07:49:23;;;;;;;;;3.00;0.67;;;;;14.49;70.24;98889.88;5037639;28;45497;-41
2023/10/21 07:51:48;;;;;;;;;4.00;2.00;;;;;14.43;69.55;98886.19;5037884;28;45550;-41
2023/10/21 07:54:15;;;;;;;;;1.00;1.00;;;;;14.54;69.69;98915.97;5036284;28;46308;-40
2023/10/21 07:56:42;;;;;;;;;1.67;0.00;;;;;14.53;69.77;98904.47;5037339;28;45502;-39
2023/10/21 07:59:07;;;;;;;;;2.67;0.33;;;;;14.63;69.35;98894.09;5036878;28;45352;-41
2023/10/21 08:01:32;;;;;;;;;4.33;2.67;;;;;14.82;68.93;98894.97;5037196;28;45412;-40
2023/10/21 08:03:58;;;;;;;;;3.00;1.00;;;;;14.88;68.52;98888.75;5037168;28;45370;-42
2023/10/21 08:06:23;;;;;;;;;1.00;1.00;;;;;14.92;68.30;98895.31;5037186;28;45470;-41
2023/10/21 08:08:48;;;;;;;;;3.00;1.00;;;;;15.05;67.63;98893.53;5037244;28;45320;-40
2023/10/21 08:11:15;;;;;;;;;1.67;1.67;;;;;15.12;67.41;98896.97;5036973;28;45484;-41
2023/10/21 08:13:40;;;;;;;;;2.67;0.67;;;;;15.17;67.38;98907.84;5037162;28;46032;-39
2023/10/21 08:16:06;;;;;;;;;5.00;0.33;;;;;15.25;67.24;98915.56;5036178;28;54995;-42
2023/10/21 08:18:31;;;;;;;;;3.00;1.33;;;;;15.26;67.28;98903.03;5037109;28;45416;-43
2023/10/21 08:20:56;;;;;;;;;2.00;0.33;;;;;15.19;67.13;98895.03;5036479;28;45339;-42
2023/10/21 08:23:21;;;;;;;;;2.00;0.33;;;;;15.35;66.88;98907.84;5036603;28;50251;-41
2023/10/21 08:25:47;;;;;;;;;5.67;1.00;;;;;15.42;66.50;98903.25;5035289;28;45540;-43
2023/10/21 08:28:12;;;;;;;;;0.67;0.67;;;;;15.33;66.40;98914.47;5036812;28;45432;-40
2023/10/21 08:30:37;;;;;;;;;1.00;1.00;;;;;15.56;66.09;98906.59;5037096;28;45399;-40
2023/10/21 08:33:05;;;;;;;;;3.00;1.00;;;;;15.67;65.33;98918.44;5036110;28;45492;-40
2023/10/21 08:35:31;;;;;;;;;6.33;1.00;;;;;15.61;65.23;98932.72;5036438;28;45453;-40
2023/10/21 08:37:58;;;;;;;;;2.67;1.00;;;;;15.61;65.79;98913.97;5036670;28;45345;-38
2023/10/21 08:40:24;;;;;;;;;2.33;0.67;;;;;15.61;65.38;98919.31;5036599;28;45344;-46
2023/10/21 08:42:50;;;;;;;;;3.00;1.00;;;;;15.68;65.79;98915.56;5036302;28;46157;-42
2023/10/21 08:45:16;;;;;;;;;2.67;0.00;;;;;15.61;64.88;98916.66;5036238;28;45256;-42
2023/10/21 08:47:44;;;;;;;;;1.67;1.67;;;;;15.83;64.36;98919.72;5036240;28;45444;-41
2023/10/21 08:50:12;;;;;;;;;0.00;0.00;;;;;16.01;63.52;98917.00;5035568;28;45416;-40
2023/10/21 08:52:40;;;;;;;;;4.67;1.67;;;;;16.41;62.73;98935.22;5032018;28;46987;-40
2023/10/21 08:55:06;;;;;;;;;1.33;1.00;;;;;16.44;63.03;98924.06;5035968;28;45320;-40
2023/10/21 08:57:33;;;;;;;;;0.00;0.00;;;;;16.28;63.72;98932.75;5036147;28;45376;-41
2023/10/21 08:59:59;;;;;;;;;8.00;3.00;;;;;16.19;63.71;98930.38;5036109;28;45368;-39
2023/10/21 09:02:25;;;;;;;;;0.33;0.33;;;;;16.06;63.36;98945.84;5035824;28;46109;-42
2023/10/21 09:04:51;;;;;;;;;0.33;0.33;;;;;15.98;63.68;98936.22;5018575;28;45400;-42
2023/10/21 09:07:16;;;;;;;;;2.67;0.67;;;;;15.89;63.85;98927.69;4996958;28;45505;-41
2023/10/21 09:09:41;;;;;;;;;1.00;1.00;;;;;15.89;63.74;98921.50;5015898;28;45542;-40
2023/10/21 09:12:10;;;;;;;;;1.67;0.00;;;;;16.04;64.15;98938.00;5015731;28;46324;-41
2023/10/21 09:14:56;;;;;;;;;1.00;1.00;;;;;16.01;64.15;98937.63;5015735;28;45221;-42
2023/10/21 09:17:34;;;;;;;;;1.67;0.33;;;;;16.10;63.74;98950.53;4998016;28;45306;-41
2023/10/21 09:19:59;;;;;;;;;0.00;0.00;;;;;16.09;63.17;98932.75;5015856;28;45409;-41
2023/10/21 09:22:27;;;;;;;;;3.00;0.00;;;;;16.07;63.52;98942.09;5015654;28;46210;-40
2023/10/21 09:25:18;;;;;;;;;2.67;0.33;;;;;15.96;64.07;98951.72;5015385;28;45459;-43
2023/10/21 09:27:49;;;;;;;;;4.00;1.00;;;;;16.04;63.62;98932.63;5015744;28;45405;-39
2023/10/21 09:30:19;;;;;;;;;0.00;0.00;;;;;16.35;63.17;98941.50;5015946;28;45473;-40
2023/10/21 09:32:46;;;;;;;;;3.00;1.00;;;;;16.43;62.65;98946.53;5015412;28;47145;-40
2023/10/21 09:35:30;;;;;;;;;3.33;0.67;;;;;16.38;62.72;98939.19;5015476;28;45469;-40
2023/10/21 09:37:56;;;;;;;;;1.00;1.00;;;;;16.79;62.23;98947.50;5015757;28;45170;-40
2023/10/21 09:40:24;;;;;;;;;2.00;2.00;;;;;17.05;61.14;98954.31;5015872;28;45378;-40
2023/10/21 09:42:52;;;;;;;;;3.00;1.67;;;;;17.23;60.42;98974.88;5015485;28;47350;-41
2023/10/21 09:45:18;;;;;;;;;5.33;2.00;;;;;17.12;61.04;98973.81;5015452;28;45392;-42
2023/10/21 09:47:45;;;;;;;;;2.67;1.00;;;;;16.94;60.80;98956.75;5014997;28;45395;-40
2023/10/21 09:50:13;;;;;;;;;1.00;0.00;;;;;17.63;59.80;98954.28;4997236;28;45318;-42
2023/10/21 09:53:00;;;;;;;;;2.67;0.67;;;;;19.54;55.42;98952.84;4996027;28;46252;-41
2023/10/21 09:55:31;;;;;;;;;2.25;1.25;;;;;20.61;52.06;98945.25;5013454;28;45426;-41
2023/10/21 09:57:57;;;;;;;;;1.00;0.50;;;;;20.73;52.37;98940.50;5015323;28;45462;-41
2023/10/21 10:00:24;;;;;;;;;4.50;0.75;;;;;20.49;50.50;98948.09;5015852;28;45396;-42
2023/10/21 10:02:53;;;;;;;;;3.50;0.00;;;;;19.93;53.52;98956.38;5017000;28;46569;-38
2023/10/21 10:05:20;;;;;;;;;2.00;1.00;;;;;19.21;53.95;98948.31;5030628;28;45406;-39
2023/10/21 10:07:47;;;;;;;;;1.00;1.00;;;;;18.50;54.75;98964.13;5039070;28;45427;-41
2023/10/21 10:10:14;;;;;;;;;2.00;0.25;;;;;18.05;56.50;98954.09;5038263;28;45447;-42
2023/10/21 10:13:01;;;;;;;;;2.00;1.50;;;;;17.54;56.93;98969.16;5038500;28;46375;-41
2023/10/21 10:15:27;;;;;;;;;3.75;2.00;;;;;17.29;57.57;98974.75;5038624;28;45317;-42
2023/10/21 10:17:53;;;;;;;;;3.25;1.25;;;;;17.05;58.34;98979.28;5038903;28;45510;-42
2023/10/21 10:20:27;;;;;;;;;3.00;2.00;;;;;16.87;59.37;98982.06;5038978;28;45371;-40
2023/10/21 10:23:08;;;;;;;;;2.00;1.00;;;;;16.62;59.64;98974.97;5038674;28;46130;-42
2023/10/21 10:25:36;;;;;;;;;4.00;1.00;;;;;16.52;60.23;98980.09;5038854;28;45206;-40
2023/10/21 10:28:08;;;;;;;;;0.75;0.75;;;;;16.46;60.28;98983.66;5038893;28;45390;-40
2023/10/21 10:30:35;;;;;;;;;1.67;1.00;;;;;16.39;60.22;98991.81;5038314;28;45320;-40
2023/10/21 10:33:06;;;;;;;;;4.33;1.67;;;;;16.26;60.38;98978.56;5037375;28;45361;-40
2023/10/21 10:35:37;;;;;;;;;1.00;1.00;;;;;16.32;60.96;98979.53;5038665;28;45420;-42
2023/10/21 10:38:16;;;;;;;;;1.00;1.00;;;;;16.41;60.75;98984.34;5038182;28;45528;-46
2023/10/21 10:40:43;;;;;;;;;1.67;1.00;;;;;16.51;60.15;98977.63;5038586;28;45441;-40
2023/10/21 10:43:10;;;;;;;;;4.00;3.00;;;;;16.42;60.15;98986.00;5037658;28;48387;-42
2023/10/21 10:45:39;;;;;;;;;2.00;0.00;;;;;16.35;60.34;98984.44;5038410;28;45308;-39
2023/10/21 10:48:07;;;;;;;;;1.33;1.33;;;;;16.42;60.55;98985.16;5037616;28;45318;-41
2023/10/21 10:50:39;;;;;;;;;2.67;2.00;;;;;16.48;60.54;98989.66;5038872;28;45376;-41
2023/10/21 10:53:33;;;;;;;;;2.33;0.00;;;;;16.52;60.71;98992.66;5038229;28;46214;-41
2023/10/21 10:55:59;;;;;;;;;1.00;1.00;;;;;16.61;60.12;99007.44;5035577;28;45550;-41
2023/10/21 10:58:28;;;;;;;;;5.67;1.67;;;;;16.79;59.69;98988.59;5037938;28;45733;-40
2023/10/21 11:00:53;;;;;;;;;3.33;1.00;;;;;16.89;59.43;99013.00;5037867;28;45447;-41
2023/10/21 11:03:31;;;;;;;;;4.67;1.67;;;;;17.01;59.45;99001.47;5037696;28;46138;-40
2023/10/21 11:05:58;;;;;;;;;2.00;0.00;;;;;17.04;59.09;98974.16;5036978;28;45412;-41
2023/10/21 11:08:24;;;;;;;;;2.00;0.00;;;;;17.23;57.85;98978.38;5038021;28;45379;-42
2023/10/21 11:10:53;;;;;;;;;7.00;3.33;;;;;17.27;57.80;98981.41;5038267;28;45325;-40
2023/10/21 11:13:19;;;;;;;;;2.00;0.00;;;;;17.27;58.52;98997.53;5037363;28;46264;-41
2023/10/21 11:15:47;;;;;;;;;7.00;2.00;;;;;17.31;58.06;98983.41;5037736;28;45290;-42
2023/10/21 11:18:15;;;;;;;;;4.33;1.33;;;;;17.32;57.84;98984.22;5038143;28;45527;-41
2023/10/21 11:20:53;;;;;;;;;0.00;0.00;;;;;17.13;57.95;98978.94;5038011;28;45340;-39
2023/10/21 11:23:20;;;;;;;;;2.00;1.00;;;;;16.93;58.37;98975.78;5037214;28;46453;-41
2023/10/21 11:25:57;;;;;;;;;0.25;0.00;;;;;16.77;59.18;98982.66;5038570;28;45355;-42
2023/10/21 11:28:25;;;;;;;;;1.75;0.00;;;;;16.69;59.40;98994.50;5038057;28;45451;-42
2023/10/21 11:30:51;;;;;;;;;6.00;1.00;;;;;16.60;59.51;98981.59;5036879;28;45398;-42
2023/10/21 11:33:17;;;;;;;;;2.00;1.67;;;;;16.62;59.90;98984.91;5038270;28;45844;-40